sensor_id;sensor_type;location;lat;lon;timestamp;temperature;humidity
17027;DHT22;8630;50.500;12.164;2022-08-19T00:01:26;19.30;99.90
17027;DHT22;8630;50.500;12.164;2022-08-19T00:03:55;19.20;99.90
17027;DHT22;8630;50.500;12.164;2022-08-19T00:06:22;19.20;99.90
17027;DHT22;8630;50.500;12.164;2022-08-19T00:08:50;19.20;99.90
17027;DHT22;8630;50.500;12.164;2022-08-19T00:11:18;19.30;99.90
17027;DHT22;8630;50.500;12.164;2022-08-19T00:13:46;19.30;99.90
17027;DHT22;8630;50.500;12.164;2022-08-19T00:16:14;19.40;99.90
17027;DHT22;8630;50.500;12.164;2022-08-19T00:18:41;19.40;99.90
17027;DHT22;8630;50.500;12.164;2022-08-19T00:21:08;19.40;99.90
17027;DHT22;8630;50.500;12.164;2022-08-19T00:23:35;19.40;99.90
17027;DHT22;8630;50.500;12.164;2022-08-19T00:26:05;19.40;99.90
17027;DHT22;8630;50.500;12.164;2022-08-19T00:28:33;19.40;99.90
17027;DHT22;8630;50.500;12.164;2022-08-19T00:31:01;19.40;99.90
17027;DHT22;8630;50.500;12.164;2022-08-19T00:33:28;19.40;99.90
17027;DHT22;8630;50.500;12.164;2022-08-19T00:35:58;19.40;99.90
17027;DHT22;8630;50.500;12.164;2022-08-19T00:38:28;19.40;99.90
17027;DHT22;8630;50.500;12.164;2022-08-19T00:40:56;19.40;99.90
17027;DHT22;8630;50.500;12.164;2022-08-19T00:43:26;19.40;99.90
17027;DHT22;8630;50.500;12.164;2022-08-19T00:45:55;19.40;99.90
17027;DHT22;8630;50.500;12.164;2022-08-19T00:48:22;19.40;99.90
17027;DHT22;8630;50.500;12.164;2022-08-19T00:50:51;19.50;99.90
17027;DHT22;8630;50.500;12.164;2022-08-19T00:53:23;19.50;99.90
17027;DHT22;8630;50.500;12.164;2022-08-19T00:55:53;19.50;99.90
17027;DHT22;8630;50.500;12.164;2022-08-19T00:58:27;19.40;99.90
17027;DHT22;8630;50.500;12.164;2022-08-19T01:00:55;19.40;99.90
17027;DHT22;8630;50.500;12.164;2022-08-19T01:03:22;19.30;99.90
17027;DHT22;8630;50.500;12.164;2022-08-19T01:05:50;19.20;99.90
17027;DHT22;8630;50.500;12.164;2022-08-19T01:08:19;19.20;99.90
17027;DHT22;8630;50.500;12.164;2022-08-19T01:10:49;19.20;99.90
17027;DHT22;8630;50.500;12.164;2022-08-19T01:13:20;19.20;99.90
17027;DHT22;8630;50.500;12.164;2022-08-19T01:15:51;19.20;99.90
17027;DHT22;8630;50.500;12.164;2022-08-19T01:18:19;19.20;99.90
17027;DHT22;8630;50.500;12.164;2022-08-19T01:20:51;19.20;99.90
17027;DHT22;8630;50.500;12.164;2022-08-19T01:23:20;19.30;99.90
17027;DHT22;8630;50.500;12.164;2022-08-19T01:25:50;19.30;99.90
17027;DHT22;8630;50.500;12.164;2022-08-19T01:28:20;19.30;99.90
17027;DHT22;8630;50.500;12.164;2022-08-19T01:30:47;19.30;99.90
17027;DHT22;8630;50.500;12.164;2022-08-19T01:33:14;19.20;99.90
17027;DHT22;8630;50.500;12.164;2022-08-19T01:35:43;19.10;99.90
17027;DHT22;8630;50.500;12.164;2022-08-19T01:38:23;19.10;99.90
17027;DHT22;8630;50.500;12.164;2022-08-19T01:40:51;19.10;99.90
17027;DHT22;8630;50.500;12.164;2022-08-19T01:43:19;19.10;99.90
17027;DHT22;8630;50.500;12.164;2022-08-19T01:45:46;19.10;99.90
17027;DHT22;8630;50.500;12.164;2022-08-19T01:48:14;19.10;99.90
17027;DHT22;8630;50.500;12.164;2022-08-19T01:50:42;19.10;99.90
17027;DHT22;8630;50.500;12.164;2022-08-19T01:53:11;19.10;99.90
17027;DHT22;8630;50.500;12.164;2022-08-19T01:55:42;19.10;99.90
17027;DHT22;8630;50.500;12.164;2022-08-19T01:58:12;19.20;99.90
17027;DHT22;8630;50.500;12.164;2022-08-19T02:00:40;19.20;99.90
17027;DHT22;8630;50.500;12.164;2022-08-19T02:03:11;19.30;99.90
17027;DHT22;8630;50.500;12.164;2022-08-19T02:05:39;19.30;99.90
17027;DHT22;8630;50.500;12.164;2022-08-19T02:08:07;19.40;99.90
17027;DHT22;8630;50.500;12.164;2022-08-19T02:10:40;19.40;99.90
17027;DHT22;8630;50.500;12.164;2022-08-19T02:13:08;19.50;99.90
17027;DHT22;8630;50.500;12.164;2022-08-19T02:15:36;19.50;99.90
17027;DHT22;8630;50.500;12.164;2022-08-19T02:18:03;19.50;99.90
17027;DHT22;8630;50.500;12.164;2022-08-19T02:20:31;19.50;99.90
17027;DHT22;8630;50.500;12.164;2022-08-19T02:22:57;19.50;99.90
17027;DHT22;8630;50.500;12.164;2022-08-19T02:25:27;19.50;99.90
17027;DHT22;8630;50.500;12.164;2022-08-19T02:27:56;19.50;99.90
17027;DHT22;8630;50.500;12.164;2022-08-19T02:30:23;19.50;99.90
17027;DHT22;8630;50.500;12.164;2022-08-19T02:32:51;19.50;99.90
17027;DHT22;8630;50.500;12.164;2022-08-19T02:35:18;19.50;99.90
17027;DHT22;8630;50.500;12.164;2022-08-19T02:37:45;19.60;99.90
17027;DHT22;8630;50.500;12.164;2022-08-19T02:40:31;19.60;99.90
17027;DHT22;8630;50.500;12.164;2022-08-19T02:43:00;19.60;99.90
17027;DHT22;8630;50.500;12.164;2022-08-19T02:45:31;19.70;99.90
17027;DHT22;8630;50.500;12.164;2022-08-19T02:47:59;19.70;99.90
17027;DHT22;8630;50.500;12.164;2022-08-19T02:50:26;19.70;99.90
17027;DHT22;8630;50.500;12.164;2022-08-19T02:52:54;19.70;99.90
17027;DHT22;8630;50.500;12.164;2022-08-19T02:55:23;19.80;99.90
17027;DHT22;8630;50.500;12.164;2022-08-19T02:57:50;19.80;99.90
17027;DHT22;8630;50.500;12.164;2022-08-19T03:00:19;19.80;99.90
17027;DHT22;8630;50.500;12.164;2022-08-19T03:02:46;19.80;99.90
17027;DHT22;8630;50.500;12.164;2022-08-19T03:05:14;19.80;99.90
17027;DHT22;8630;50.500;12.164;2022-08-19T03:07:42;19.80;99.90
17027;DHT22;8630;50.500;12.164;2022-08-19T03:10:09;19.80;99.90
17027;DHT22;8630;50.500;12.164;2022-08-19T03:12:38;19.80;99.90
17027;DHT22;8630;50.500;12.164;2022-08-19T03:15:07;19.90;99.90
17027;DHT22;8630;50.500;12.164;2022-08-19T03:17:36;19.90;99.90
17027;DHT22;8630;50.500;12.164;2022-08-19T03:20:04;20.00;99.90
17027;DHT22;8630;50.500;12.164;2022-08-19T03:22:31;20.00;99.90
17027;DHT22;8630;50.500;12.164;2022-08-19T03:24:58;20.00;99.90
17027;DHT22;8630;50.500;12.164;2022-08-19T03:27:26;20.00;99.90
17027;DHT22;8630;50.500;12.164;2022-08-19T03:29:55;20.00;99.90
17027;DHT22;8630;50.500;12.164;2022-08-19T03:32:22;20.00;99.90
17027;DHT22;8630;50.500;12.164;2022-08-19T03:34:50;20.00;99.90
17027;DHT22;8630;50.500;12.164;2022-08-19T03:37:18;20.00;99.90
17027;DHT22;8630;50.500;12.164;2022-08-19T03:39:45;20.00;99.90
17027;DHT22;8630;50.500;12.164;2022-08-19T03:42:12;20.00;99.90
17027;DHT22;8630;50.500;12.164;2022-08-19T03:44:39;20.00;99.90
17027;DHT22;8630;50.500;12.164;2022-08-19T03:47:08;20.00;99.90
17027;DHT22;8630;50.500;12.164;2022-08-19T03:49:35;20.00;99.90
17027;DHT22;8630;50.500;12.164;2022-08-19T03:52:04;19.90;99.90
17027;DHT22;8630;50.500;12.164;2022-08-19T03:54:33;20.00;99.90
17027;DHT22;8630;50.500;12.164;2022-08-19T03:57:00;20.00;99.90
17027;DHT22;8630;50.500;12.164;2022-08-19T03:59:30;19.90;99.90
17027;DHT22;8630;50.500;12.164;2022-08-19T04:02:00;19.90;99.90
17027;DHT22;8630;50.500;12.164;2022-08-19T04:04:27;20.00;99.90
17027;DHT22;8630;50.500;12.164;2022-08-19T04:06:55;19.90;99.90
17027;DHT22;8630;50.500;12.164;2022-08-19T04:09:25;19.90;99.90
17027;DHT22;8630;50.500;12.164;2022-08-19T04:11:54;19.80;99.90
17027;DHT22;8630;50.500;12.164;2022-08-19T04:14:24;19.80;99.90
17027;DHT22;8630;50.500;12.164;2022-08-19T04:16:52;19.80;99.90
17027;DHT22;8630;50.500;12.164;2022-08-19T04:19:19;19.80;99.90
17027;DHT22;8630;50.500;12.164;2022-08-19T04:21:49;19.80;99.90
17027;DHT22;8630;50.500;12.164;2022-08-19T04:24:17;19.80;99.90
17027;DHT22;8630;50.500;12.164;2022-08-19T04:26:48;19.70;99.90
17027;DHT22;8630;50.500;12.164;2022-08-19T04:29:19;19.80;99.90
17027;DHT22;8630;50.500;12.164;2022-08-19T04:31:48;19.80;99.90
17027;DHT22;8630;50.500;12.164;2022-08-19T04:34:18;19.80;99.90
17027;DHT22;8630;50.500;12.164;2022-08-19T04:36:48;19.80;99.90
17027;DHT22;8630;50.500;12.164;2022-08-19T04:39:19;19.80;99.90
17027;DHT22;8630;50.500;12.164;2022-08-19T04:41:48;19.80;99.90
17027;DHT22;8630;50.500;12.164;2022-08-19T04:44:34;19.70;99.90
17027;DHT22;8630;50.500;12.164;2022-08-19T04:47:02;19.70;99.90
17027;DHT22;8630;50.500;12.164;2022-08-19T04:49:31;19.70;99.90
17027;DHT22;8630;50.500;12.164;2022-08-19T04:51:58;19.70;99.90
17027;DHT22;8630;50.500;12.164;2022-08-19T04:54:25;19.70;99.90
17027;DHT22;8630;50.500;12.164;2022-08-19T04:56:56;19.70;99.90
17027;DHT22;8630;50.500;12.164;2022-08-19T04:59:23;19.70;99.90
17027;DHT22;8630;50.500;12.164;2022-08-19T05:01:50;19.80;99.90
17027;DHT22;8630;50.500;12.164;2022-08-19T05:04:19;19.80;99.90
17027;DHT22;8630;50.500;12.164;2022-08-19T05:06:47;19.80;99.90
17027;DHT22;8630;50.500;12.164;2022-08-19T05:09:15;19.80;99.90
17027;DHT22;8630;50.500;12.164;2022-08-19T05:11:43;19.80;99.90
17027;DHT22;8630;50.500;12.164;2022-08-19T05:14:11;19.80;99.90
17027;DHT22;8630;50.500;12.164;2022-08-19T05:16:39;19.90;99.90
17027;DHT22;8630;50.500;12.164;2022-08-19T05:19:07;19.90;99.90
17027;DHT22;8630;50.500;12.164;2022-08-19T05:21:52;19.90;99.90
17027;DHT22;8630;50.500;12.164;2022-08-19T05:24:36;19.90;99.90
17027;DHT22;8630;50.500;12.164;2022-08-19T05:27:04;19.90;99.90
17027;DHT22;8630;50.500;12.164;2022-08-19T05:29:34;20.00;99.90
17027;DHT22;8630;50.500;12.164;2022-08-19T05:32:03;20.00;99.90
17027;DHT22;8630;50.500;12.164;2022-08-19T05:34:34;20.00;99.90
17027;DHT22;8630;50.500;12.164;2022-08-19T05:37:02;20.00;99.90
17027;DHT22;8630;50.500;12.164;2022-08-19T05:39:31;20.10;99.90
17027;DHT22;8630;50.500;12.164;2022-08-19T05:42:01;20.10;99.90
17027;DHT22;8630;50.500;12.164;2022-08-19T05:44:30;20.10;99.90
17027;DHT22;8630;50.500;12.164;2022-08-19T05:47:00;20.20;99.90
17027;DHT22;8630;50.500;12.164;2022-08-19T05:49:28;20.20;99.90
17027;DHT22;8630;50.500;12.164;2022-08-19T05:51:55;20.20;99.90
17027;DHT22;8630;50.500;12.164;2022-08-19T05:54:23;20.20;99.90
17027;DHT22;8630;50.500;12.164;2022-08-19T05:56:51;20.30;99.90
17027;DHT22;8630;50.500;12.164;2022-08-19T05:59:19;20.30;99.90
17027;DHT22;8630;50.500;12.164;2022-08-19T06:01:48;20.30;99.90
17027;DHT22;8630;50.500;12.164;2022-08-19T06:04:19;20.40;99.90
17027;DHT22;8630;50.500;12.164;2022-08-19T06:06:47;20.40;99.90
17027;DHT22;8630;50.500;12.164;2022-08-19T06:09:14;20.40;99.90
17027;DHT22;8630;50.500;12.164;2022-08-19T06:11:44;20.40;99.90
17027;DHT22;8630;50.500;12.164;2022-08-19T06:14:13;20.50;99.90
17027;DHT22;8630;50.500;12.164;2022-08-19T06:16:41;20.50;99.90
17027;DHT22;8630;50.500;12.164;2022-08-19T06:19:11;20.50;99.90
17027;DHT22;8630;50.500;12.164;2022-08-19T06:21:41;20.60;99.90
17027;DHT22;8630;50.500;12.164;2022-08-19T06:24:11;20.70;99.90
17027;DHT22;8630;50.500;12.164;2022-08-19T06:26:41;20.70;99.90
17027;DHT22;8630;50.500;12.164;2022-08-19T06:29:10;20.80;99.90
17027;DHT22;8630;50.500;12.164;2022-08-19T06:31:41;20.90;99.90
17027;DHT22;8630;50.500;12.164;2022-08-19T06:34:08;21.00;99.90
17027;DHT22;8630;50.500;12.164;2022-08-19T06:36:38;21.00;99.90
17027;DHT22;8630;50.500;12.164;2022-08-19T06:39:10;21.10;99.90
17027;DHT22;8630;50.500;12.164;2022-08-19T06:41:38;21.10;99.90
17027;DHT22;8630;50.500;12.164;2022-08-19T06:44:09;21.20;99.90
17027;DHT22;8630;50.500;12.164;2022-08-19T06:46:37;21.30;99.90
17027;DHT22;8630;50.500;12.164;2022-08-19T06:49:05;21.30;99.90
17027;DHT22;8630;50.500;12.164;2022-08-19T06:51:35;21.30;99.90
17027;DHT22;8630;50.500;12.164;2022-08-19T06:54:03;21.30;99.90
17027;DHT22;8630;50.500;12.164;2022-08-19T06:56:31;21.30;99.90
17027;DHT22;8630;50.500;12.164;2022-08-19T06:59:00;21.40;99.90
17027;DHT22;8630;50.500;12.164;2022-08-19T07:01:27;21.40;99.90
17027;DHT22;8630;50.500;12.164;2022-08-19T07:03:54;21.40;99.90
17027;DHT22;8630;50.500;12.164;2022-08-19T07:06:22;21.40;99.90
17027;DHT22;8630;50.500;12.164;2022-08-19T07:08:48;21.30;99.90
17027;DHT22;8630;50.500;12.164;2022-08-19T07:11:18;21.30;99.90
17027;DHT22;8630;50.500;12.164;2022-08-19T07:13:47;21.30;99.90
17027;DHT22;8630;50.500;12.164;2022-08-19T07:16:16;21.30;99.90
17027;DHT22;8630;50.500;12.164;2022-08-19T07:18:45;21.30;99.90
17027;DHT22;8630;50.500;12.164;2022-08-19T07:21:18;21.30;99.90
17027;DHT22;8630;50.500;12.164;2022-08-19T07:23:45;21.30;99.90
17027;DHT22;8630;50.500;12.164;2022-08-19T07:26:16;21.30;99.90
17027;DHT22;8630;50.500;12.164;2022-08-19T07:28:46;21.30;99.90
17027;DHT22;8630;50.500;12.164;2022-08-19T07:31:17;21.20;99.90
17027;DHT22;8630;50.500;12.164;2022-08-19T07:33:46;21.30;99.90
17027;DHT22;8630;50.500;12.164;2022-08-19T07:36:15;21.30;99.90
17027;DHT22;8630;50.500;12.164;2022-08-19T07:38:45;21.30;99.90
17027;DHT22;8630;50.500;12.164;2022-08-19T07:41:16;21.30;99.90
17027;DHT22;8630;50.500;12.164;2022-08-19T07:43:43;21.20;99.90
17027;DHT22;8630;50.500;12.164;2022-08-19T07:46:14;21.10;99.90
17027;DHT22;8630;50.500;12.164;2022-08-19T07:48:43;21.10;99.90
17027;DHT22;8630;50.500;12.164;2022-08-19T07:51:15;21.00;99.90
17027;DHT22;8630;50.500;12.164;2022-08-19T07:53:42;21.00;99.90
17027;DHT22;8630;50.500;12.164;2022-08-19T07:56:10;21.00;99.90
17027;DHT22;8630;50.500;12.164;2022-08-19T07:58:41;20.90;99.90
17027;DHT22;8630;50.500;12.164;2022-08-19T08:01:10;21.00;99.90
17027;DHT22;8630;50.500;12.164;2022-08-19T08:03:39;20.90;99.90
17027;DHT22;8630;50.500;12.164;2022-08-19T08:06:24;20.90;99.90
17027;DHT22;8630;50.500;12.164;2022-08-19T08:09:10;20.80;99.90
17027;DHT22;8630;50.500;12.164;2022-08-19T08:11:49;20.70;99.90
17027;DHT22;8630;50.500;12.164;2022-08-19T08:14:19;20.60;99.90
17027;DHT22;8630;50.500;12.164;2022-08-19T08:16:47;20.60;99.90
17027;DHT22;8630;50.500;12.164;2022-08-19T08:19:19;20.50;99.90
17027;DHT22;8630;50.500;12.164;2022-08-19T08:21:47;20.50;99.90
17027;DHT22;8630;50.500;12.164;2022-08-19T08:24:15;20.50;99.90
17027;DHT22;8630;50.500;12.164;2022-08-19T08:26:43;20.50;99.90
17027;DHT22;8630;50.500;12.164;2022-08-19T08:29:10;20.50;99.90
17027;DHT22;8630;50.500;12.164;2022-08-19T08:31:39;20.60;99.90
17027;DHT22;8630;50.500;12.164;2022-08-19T08:34:08;20.60;99.90
17027;DHT22;8630;50.500;12.164;2022-08-19T08:36:39;20.70;99.90
17027;DHT22;8630;50.500;12.164;2022-08-19T08:39:11;20.70;99.90
17027;DHT22;8630;50.500;12.164;2022-08-19T08:41:46;20.80;99.90
17027;DHT22;8630;50.500;12.164;2022-08-19T08:44:23;20.90;99.90
17027;DHT22;8630;50.500;12.164;2022-08-19T08:46:58;20.90;99.90
17027;DHT22;8630;50.500;12.164;2022-08-19T08:49:31;21.00;99.90
17027;DHT22;8630;50.500;12.164;2022-08-19T08:52:05;21.10;99.90
17027;DHT22;8630;50.500;12.164;2022-08-19T08:54:36;21.20;99.90
17027;DHT22;8630;50.500;12.164;2022-08-19T08:57:09;21.30;99.90
17027;DHT22;8630;50.500;12.164;2022-08-19T08:59:40;21.40;99.90
17027;DHT22;8630;50.500;12.164;2022-08-19T09:02:09;21.40;99.90
17027;DHT22;8630;50.500;12.164;2022-08-19T09:04:36;21.50;99.90
17027;DHT22;8630;50.500;12.164;2022-08-19T09:07:23;21.50;99.90
17027;DHT22;8630;50.500;12.164;2022-08-19T09:09:56;21.60;99.90
17027;DHT22;8630;50.500;12.164;2022-08-19T09:12:34;21.60;99.90
17027;DHT22;8630;50.500;12.164;2022-08-19T09:15:08;21.70;99.90
17027;DHT22;8630;50.500;12.164;2022-08-19T09:17:36;21.70;99.90
17027;DHT22;8630;50.500;12.164;2022-08-19T09:20:08;21.80;99.90
17027;DHT22;8630;50.500;12.164;2022-08-19T09:22:42;21.70;99.90
17027;DHT22;8630;50.500;12.164;2022-08-19T09:25:11;21.70;99.90
17027;DHT22;8630;50.500;12.164;2022-08-19T09:27:40;21.70;99.90
17027;DHT22;8630;50.500;12.164;2022-08-19T09:30:09;21.70;99.90
17027;DHT22;8630;50.500;12.164;2022-08-19T09:32:36;21.60;99.90
17027;DHT22;8630;50.500;12.164;2022-08-19T09:35:07;21.60;99.90
17027;DHT22;8630;50.500;12.164;2022-08-19T09:37:34;21.60;99.90
17027;DHT22;8630;50.500;12.164;2022-08-19T09:40:04;21.50;99.90
17027;DHT22;8630;50.500;12.164;2022-08-19T09:42:32;21.50;99.90
17027;DHT22;8630;50.500;12.164;2022-08-19T09:45:01;21.50;99.90
17027;DHT22;8630;50.500;12.164;2022-08-19T09:47:28;21.50;99.90
17027;DHT22;8630;50.500;12.164;2022-08-19T09:49:55;21.60;99.90
17027;DHT22;8630;50.500;12.164;2022-08-19T09:52:23;21.50;99.90
17027;DHT22;8630;50.500;12.164;2022-08-19T09:54:52;21.50;99.90
17027;DHT22;8630;50.500;12.164;2022-08-19T09:57:21;21.50;99.90
17027;DHT22;8630;50.500;12.164;2022-08-19T09:59:48;21.50;99.90
17027;DHT22;8630;50.500;12.164;2022-08-19T10:02:15;21.60;99.90
17027;DHT22;8630;50.500;12.164;2022-08-19T10:04:43;21.70;99.90
17027;DHT22;8630;50.500;12.164;2022-08-19T10:07:29;21.70;99.90
17027;DHT22;8630;50.500;12.164;2022-08-19T10:09:56;21.70;99.90
17027;DHT22;8630;50.500;12.164;2022-08-19T10:12:24;21.80;99.90
17027;DHT22;8630;50.500;12.164;2022-08-19T10:14:51;21.80;99.90
17027;DHT22;8630;50.500;12.164;2022-08-19T10:17:20;21.90;99.90
17027;DHT22;8630;50.500;12.164;2022-08-19T10:19:47;22.00;99.90
17027;DHT22;8630;50.500;12.164;2022-08-19T10:22:14;22.00;99.90
17027;DHT22;8630;50.500;12.164;2022-08-19T10:24:41;22.10;99.90
17027;DHT22;8630;50.500;12.164;2022-08-19T10:27:10;22.00;99.90
17027;DHT22;8630;50.500;12.164;2022-08-19T10:29:40;21.90;99.90
17027;DHT22;8630;50.500;12.164;2022-08-19T10:32:08;21.90;99.90
17027;DHT22;8630;50.500;12.164;2022-08-19T10:34:37;21.80;99.90
17027;DHT22;8630;50.500;12.164;2022-08-19T10:37:05;21.80;99.90
17027;DHT22;8630;50.500;12.164;2022-08-19T10:39:35;21.80;99.90
17027;DHT22;8630;50.500;12.164;2022-08-19T10:42:05;21.80;99.90
17027;DHT22;8630;50.500;12.164;2022-08-19T10:44:32;21.80;99.90
17027;DHT22;8630;50.500;12.164;2022-08-19T10:47:03;21.80;99.90
17027;DHT22;8630;50.500;12.164;2022-08-19T10:49:30;21.80;99.90
17027;DHT22;8630;50.500;12.164;2022-08-19T10:51:58;21.80;99.90
17027;DHT22;8630;50.500;12.164;2022-08-19T10:54:42;21.80;99.90
17027;DHT22;8630;50.500;12.164;2022-08-19T10:57:30;21.80;99.90
17027;DHT22;8630;50.500;12.164;2022-08-19T10:59:57;21.80;99.90
17027;DHT22;8630;50.500;12.164;2022-08-19T11:02:25;21.80;99.90
17027;DHT22;8630;50.500;12.164;2022-08-19T11:04:52;21.80;99.90
17027;DHT22;8630;50.500;12.164;2022-08-19T11:07:19;21.90;99.90
17027;DHT22;8630;50.500;12.164;2022-08-19T11:09:46;22.00;99.90
17027;DHT22;8630;50.500;12.164;2022-08-19T11:12:13;22.10;99.90
17027;DHT22;8630;50.500;12.164;2022-08-19T11:14:40;22.20;99.90
17027;DHT22;8630;50.500;12.164;2022-08-19T11:17:07;22.30;99.90
17027;DHT22;8630;50.500;12.164;2022-08-19T11:19:38;22.40;99.90
17027;DHT22;8630;50.500;12.164;2022-08-19T11:22:07;22.40;99.90
17027;DHT22;8630;50.500;12.164;2022-08-19T11:24:35;22.40;99.90
17027;DHT22;8630;50.500;12.164;2022-08-19T11:27:05;22.40;99.90
17027;DHT22;8630;50.500;12.164;2022-08-19T11:29:35;22.20;99.90
17027;DHT22;8630;50.500;12.164;2022-08-19T11:32:06;22.20;99.90
17027;DHT22;8630;50.500;12.164;2022-08-19T11:34:35;22.20;99.90
17027;DHT22;8630;50.500;12.164;2022-08-19T11:37:04;22.30;99.90
17027;DHT22;8630;50.500;12.164;2022-08-19T11:39:32;22.30;99.90
17027;DHT22;8630;50.500;12.164;2022-08-19T11:42:01;22.30;99.90
17027;DHT22;8630;50.500;12.164;2022-08-19T11:44:28;22.20;99.90
17027;DHT22;8630;50.500;12.164;2022-08-19T11:46:56;22.20;99.90
17027;DHT22;8630;50.500;12.164;2022-08-19T11:49:23;22.20;99.90
17027;DHT22;8630;50.500;12.164;2022-08-19T11:51:50;22.10;99.90
17027;DHT22;8630;50.500;12.164;2022-08-19T11:54:18;22.30;99.90
17027;DHT22;8630;50.500;12.164;2022-08-19T11:56:45;22.30;99.90
17027;DHT22;8630;50.500;12.164;2022-08-19T11:59:14;22.40;99.90
17027;DHT22;8630;50.500;12.164;2022-08-19T12:01:41;22.50;99.90
17027;DHT22;8630;50.500;12.164;2022-08-19T12:04:09;22.60;99.90
17027;DHT22;8630;50.500;12.164;2022-08-19T12:06:38;22.70;99.90
17027;DHT22;8630;50.500;12.164;2022-08-19T12:09:07;22.70;99.90
17027;DHT22;8630;50.500;12.164;2022-08-19T12:11:37;22.70;99.90
17027;DHT22;8630;50.500;12.164;2022-08-19T12:14:05;22.70;99.90
17027;DHT22;8630;50.500;12.164;2022-08-19T12:16:32;22.70;99.90
17027;DHT22;8630;50.500;12.164;2022-08-19T12:19:00;22.60;99.90
17027;DHT22;8630;50.500;12.164;2022-08-19T12:21:31;22.50;99.90
17027;DHT22;8630;50.500;12.164;2022-08-19T12:24:00;22.30;99.90
17027;DHT22;8630;50.500;12.164;2022-08-19T12:26:28;22.20;99.90
17027;DHT22;8630;50.500;12.164;2022-08-19T12:28:58;22.20;99.90
17027;DHT22;8630;50.500;12.164;2022-08-19T12:31:26;22.10;99.90
17027;DHT22;8630;50.500;12.164;2022-08-19T12:33:53;22.10;99.90
17027;DHT22;8630;50.500;12.164;2022-08-19T12:36:22;22.00;99.90
17027;DHT22;8630;50.500;12.164;2022-08-19T12:38:50;21.90;99.90
17027;DHT22;8630;50.500;12.164;2022-08-19T12:41:19;21.80;99.90
17027;DHT22;8630;50.500;12.164;2022-08-19T12:43:49;21.70;99.90
17027;DHT22;8630;50.500;12.164;2022-08-19T12:46:18;21.60;99.90
17027;DHT22;8630;50.500;12.164;2022-08-19T12:48:46;21.50;99.90
17027;DHT22;8630;50.500;12.164;2022-08-19T12:51:16;21.40;99.90
17027;DHT22;8630;50.500;12.164;2022-08-19T12:53:45;21.30;99.90
17027;DHT22;8630;50.500;12.164;2022-08-19T12:56:13;21.20;99.90
17027;DHT22;8630;50.500;12.164;2022-08-19T12:58:41;21.20;99.90
17027;DHT22;8630;50.500;12.164;2022-08-19T13:01:10;21.20;99.90
17027;DHT22;8630;50.500;12.164;2022-08-19T13:03:39;21.10;99.90
17027;DHT22;8630;50.500;12.164;2022-08-19T13:06:06;21.10;99.90
17027;DHT22;8630;50.500;12.164;2022-08-19T13:08:35;21.10;99.90
17027;DHT22;8630;50.500;12.164;2022-08-19T13:11:10;21.10;99.90
17027;DHT22;8630;50.500;12.164;2022-08-19T13:13:38;21.10;99.90
17027;DHT22;8630;50.500;12.164;2022-08-19T13:16:08;21.00;99.90
17027;DHT22;8630;50.500;12.164;2022-08-19T13:18:35;21.00;99.90
17027;DHT22;8630;50.500;12.164;2022-08-19T13:21:05;21.00;99.90
17027;DHT22;8630;50.500;12.164;2022-08-19T13:23:34;20.90;99.90
17027;DHT22;8630;50.500;12.164;2022-08-19T13:26:03;20.90;99.90
17027;DHT22;8630;50.500;12.164;2022-08-19T13:28:31;20.90;99.90
17027;DHT22;8630;50.500;12.164;2022-08-19T13:31:15;20.90;99.90
17027;DHT22;8630;50.500;12.164;2022-08-19T13:33:59;20.80;99.90
17027;DHT22;8630;50.500;12.164;2022-08-19T13:36:28;20.80;99.90
17027;DHT22;8630;50.500;12.164;2022-08-19T13:38:55;20.80;99.90
17027;DHT22;8630;50.500;12.164;2022-08-19T13:41:23;20.80;99.90
17027;DHT22;8630;50.500;12.164;2022-08-19T13:43:50;20.80;99.90
17027;DHT22;8630;50.500;12.164;2022-08-19T13:46:18;20.80;99.90
17027;DHT22;8630;50.500;12.164;2022-08-19T13:48:45;20.80;99.90
17027;DHT22;8630;50.500;12.164;2022-08-19T13:51:12;20.80;99.90
17027;DHT22;8630;50.500;12.164;2022-08-19T13:53:40;20.80;99.90
17027;DHT22;8630;50.500;12.164;2022-08-19T13:56:10;20.90;99.90
17027;DHT22;8630;50.500;12.164;2022-08-19T13:58:39;20.90;99.90
17027;DHT22;8630;50.500;12.164;2022-08-19T14:01:06;21.00;99.90
17027;DHT22;8630;50.500;12.164;2022-08-19T14:03:34;21.10;99.90
17027;DHT22;8630;50.500;12.164;2022-08-19T14:06:01;21.20;99.90
17027;DHT22;8630;50.500;12.164;2022-08-19T14:08:29;21.20;99.90
17027;DHT22;8630;50.500;12.164;2022-08-19T14:10:59;21.30;99.90
17027;DHT22;8630;50.500;12.164;2022-08-19T14:13:26;21.30;99.90
17027;DHT22;8630;50.500;12.164;2022-08-19T14:15:53;21.40;99.90
17027;DHT22;8630;50.500;12.164;2022-08-19T14:18:20;21.40;99.90
17027;DHT22;8630;50.500;12.164;2022-08-19T14:20:47;21.30;99.90
17027;DHT22;8630;50.500;12.164;2022-08-19T14:23:14;21.30;99.90
17027;DHT22;8630;50.500;12.164;2022-08-19T14:25:41;21.20;99.90
17027;DHT22;8630;50.500;12.164;2022-08-19T14:28:10;21.20;99.90
17027;DHT22;8630;50.500;12.164;2022-08-19T14:30:37;21.10;99.90
17027;DHT22;8630;50.500;12.164;2022-08-19T14:33:05;21.10;99.90
17027;DHT22;8630;50.500;12.164;2022-08-19T14:35:34;21.10;99.90
17027;DHT22;8630;50.500;12.164;2022-08-19T14:38:03;21.00;99.90
17027;DHT22;8630;50.500;12.164;2022-08-19T14:40:31;20.90;99.90
17027;DHT22;8630;50.500;12.164;2022-08-19T14:43:00;20.90;99.90
17027;DHT22;8630;50.500;12.164;2022-08-19T14:45:32;20.80;99.90
17027;DHT22;8630;50.500;12.164;2022-08-19T14:48:01;20.80;99.90
17027;DHT22;8630;50.500;12.164;2022-08-19T14:50:28;20.80;99.90
17027;DHT22;8630;50.500;12.164;2022-08-19T14:53:00;20.70;99.90
17027;DHT22;8630;50.500;12.164;2022-08-19T14:55:29;20.70;99.90
17027;DHT22;8630;50.500;12.164;2022-08-19T14:57:57;20.70;99.90
17027;DHT22;8630;50.500;12.164;2022-08-19T15:00:24;20.70;99.90
17027;DHT22;8630;50.500;12.164;2022-08-19T15:02:53;20.70;99.90
17027;DHT22;8630;50.500;12.164;2022-08-19T15:05:21;20.70;99.90
17027;DHT22;8630;50.500;12.164;2022-08-19T15:07:48;20.70;99.90
17027;DHT22;8630;50.500;12.164;2022-08-19T15:10:15;20.70;99.90
17027;DHT22;8630;50.500;12.164;2022-08-19T15:12:42;20.60;99.90
17027;DHT22;8630;50.500;12.164;2022-08-19T15:15:12;20.60;99.90
17027;DHT22;8630;50.500;12.164;2022-08-19T15:17:40;20.70;99.90
17027;DHT22;8630;50.500;12.164;2022-08-19T15:20:10;20.70;99.90
17027;DHT22;8630;50.500;12.164;2022-08-19T15:22:38;20.60;99.90
17027;DHT22;8630;50.500;12.164;2022-08-19T15:25:08;20.70;99.90
17027;DHT22;8630;50.500;12.164;2022-08-19T15:27:35;20.70;99.90
17027;DHT22;8630;50.500;12.164;2022-08-19T15:30:05;20.70;99.90
17027;DHT22;8630;50.500;12.164;2022-08-19T15:32:35;20.80;99.90
17027;DHT22;8630;50.500;12.164;2022-08-19T15:35:03;20.80;99.90
17027;DHT22;8630;50.500;12.164;2022-08-19T15:37:33;20.90;99.90
17027;DHT22;8630;50.500;12.164;2022-08-19T15:40:00;21.00;99.90
17027;DHT22;8630;50.500;12.164;2022-08-19T15:42:27;21.00;99.90